Time;durP1;ratioP1;P1;durP2;ratioP2;P2;SDS_P1;SDS_P2;PMS_P1;PMS_P2;Temp;Humidity;BMP_temperature;BMP_pressure;BME280_temperature;BME280_humidity;BME280_pressure;Samples;Min_cycle;Max_cycle;Signal;HPM_P1;HPM_P2
2023/03/22 07:35:08;;;;;;;0.20;0.20;;;11.70;99.90;14.90;100467.00;;;;6332269;22;20205;-68
2023/03/22 07:37:40;;;;;;;0.33;0.33;;;11.80;99.90;14.70;100464.00;;;;6220143;22;1376001;-69
2023/03/22 07:40:17;;;;;;;0.37;0.37;;;12.00;99.90;14.30;100459.00;;;;6278038;22;20140;-69
2023/03/22 07:42:57;;;;;;;1.53;0.83;;;12.00;99.90;14.80;100473.00;;;;6276536;22;20184;-69
2023/03/22 07:45:28;;;;;;;2.10;0.63;;;12.20;99.90;14.90;100471.00;;;;6276971;22;20166;-69
2023/03/22 07:48:10;;;;;;;0.77;0.40;;;12.20;99.90;13.70;100456.00;;;;6276598;22;20223;-69
2023/03/22 07:50:46;;;;;;;7.00;1.03;;;11.80;99.90;14.10;100467.00;;;;6276739;22;20180;-69
2023/03/22 07:53:21;;;;;;;0.33;0.27;;;11.80;99.90;14.40;100432.00;;;;6276165;22;20146;-69
2023/03/22 07:55:54;;;;;;;0.20;0.20;;;11.90;99.90;14.80;100460.00;;;;6252040;22;20162;-69
2023/03/22 07:58:23;;;;;;;0.30;0.30;;;12.00;99.90;13.50;100449.00;;;;6277291;22;20503;-68
2023/03/22 08:00:55;;;;;;;5.93;1.80;;;11.70;99.90;13.80;100448.00;;;;6274067;22;20822;-68
2023/03/22 08:03:26;;;;;;;0.93;0.93;;;11.70;99.90;14.00;100458.00;;;;6277531;22;20186;-69
2023/03/22 08:05:57;;;;;;;0.67;0.40;;;11.70;99.90;14.90;100477.00;;;;6275928;22;20152;-69
2023/03/22 08:08:26;;;;;;;0.20;0.20;;;11.90;99.90;14.70;100470.00;;;;6276621;22;20148;-69
2023/03/22 08:10:52;;;;;;;0.63;0.30;;;12.00;99.90;14.90;100478.00;;;;6277712;22;20138;-69
2023/03/22 08:13:22;;;;;;;0.20;0.20;;;12.30;99.90;14.80;100482.00;;;;6275991;22;20591;-69
2023/03/22 08:15:51;;;;;;;0.20;0.20;;;12.20;99.90;14.40;100443.00;;;;6250662;22;20156;-69
2023/03/22 08:18:20;;;;;;;3.40;0.30;;;12.00;99.90;14.80;100483.00;;;;6275335;22;20205;-69
2023/03/22 08:20:55;;;;;;;0.30;0.30;;;12.20;99.90;14.50;100464.00;;;;6276300;22;20144;-69
2023/03/22 08:23:22;;;;;;;0.47;0.30;;;12.00;99.90;13.70;100453.00;;;;6249770;22;20663;-69
2023/03/22 08:25:49;;;;;;;0.47;0.47;;;11.90;99.90;14.70;100466.00;;;;6276445;22;20145;-69
2023/03/22 08:28:19;;;;;;;0.57;0.57;;;11.90;99.90;14.50;100471.00;;;;6248215;22;20580;-68
2023/03/22 08:30:50;;;;;;;0.30;0.30;;;12.00;99.90;13.30;100445.00;;;;6270557;22;20183;-68
2023/03/22 08:33:24;;;;;;;0.27;0.27;;;11.70;99.90;14.10;100448.00;;;;6274153;22;20157;-69
2023/03/22 08:35:50;;;;;;;2.07;0.87;;;11.80;99.90;13.80;100449.00;;;;6275926;22;20192;-68
2023/03/22 08:38:17;;;;;;;0.50;0.50;;;11.90;99.90;14.50;100450.00;;;;6277784;22;20150;-69
2023/03/22 08:40:46;;;;;;;0.30;0.30;;;11.90;99.90;14.70;100474.00;;;;6275990;22;20580;-69
2023/03/22 08:43:32;;;;;;;0.33;0.33;;;12.20;99.90;14.30;100459.00;;;;6275938;22;20643;-69
2023/03/22 08:46:01;;;;;;;1.40;1.17;;;12.10;99.90;14.60;100451.00;;;;6276905;22;20172;-69
2023/03/22 08:48:30;;;;;;;2.87;0.50;;;12.10;99.90;14.20;100453.00;;;;6275578;22;20148;-69
2023/03/22 08:51:05;;;;;;;0.20;0.20;;;12.10;99.90;14.60;100442.00;;;;6277192;22;20163;-69
2023/03/22 08:53:31;;;;;;;11.70;1.13;;;12.10;99.90;14.10;100449.00;;;;6275864;22;20589;-69
2023/03/22 08:56:01;;;;;;;3.20;0.37;;;12.10;99.90;14.90;100465.00;;;;6275962;22;20610;-69
2023/03/22 08:58:27;;;;;;;0.47;0.47;;;12.30;99.90;15.00;100449.00;;;;6275908;22;20174;-76
2023/03/22 09:00:53;;;;;;;0.27;0.27;;;12.30;99.90;15.20;100420.00;;;;6249853;22;20203;-70
2023/03/22 09:03:28;;;;;;;0.23;0.23;;;12.40;99.90;14.70;100444.00;;;;6275404;22;20177;-69
2023/03/22 09:05:54;;;;;;;1.97;0.33;;;12.30;99.90;14.60;100450.00;;;;6276011;22;20155;-69
2023/03/22 09:08:20;;;;;;;0.70;0.67;;;12.30;99.90;14.30;100425.00;;;;6275719;22;20141;-69
2023/03/22 09:10:50;;;;;;;0.20;0.20;;;12.10;99.90;15.00;100442.00;;;;6275921;22;20188;-73
2023/03/22 09:13:17;;;;;;;1.43;0.67;;;12.30;99.90;14.30;100435.00;;;;6250234;22;20206;-70
2023/03/22 09:15:43;;;;;;;0.40;0.40;;;12.30;99.90;14.50;100441.00;;;;6249238;22;20222;-71
2023/03/22 09:18:10;;;;;;;3.30;0.93;;;12.20;99.90;14.10;100408.00;;;;6276755;22;20214;-70
2023/03/22 09:20:49;;;;;;;0.23;0.23;;;12.10;99.90;14.40;100429.00;;;;6275553;22;20560;-70
2023/03/22 09:23:41;;;;;;;1.13;1.07;;;12.20;99.90;14.20;100395.00;;;;6276890;22;20596;-70
2023/03/22 09:26:08;;;;;;;0.27;0.27;;;12.00;99.90;15.10;100419.00;;;;6275078;22;20148;-74
2023/03/22 09:28:44;;;;;;;0.57;0.47;;;12.20;99.90;13.70;100420.00;;;;6249947;22;20156;-75
2023/03/22 09:31:10;;;;;;;1.20;1.07;;;11.90;99.90;14.00;100428.00;;;;6275442;22;20146;-70
2023/03/22 09:33:42;;;;;;;1.00;0.53;;;12.00;99.90;14.50;100425.00;;;;6275003;22;20227;-68
2023/03/22 09:36:19;;;;;;;0.10;0.10;;;12.10;99.90;15.20;100431.00;;;;6273991;22;20179;-70
2023/03/22 09:38:50;;;;;;;1.97;0.60;;;12.20;99.90;15.40;100441.00;;;;6270930;22;20163;-69
2023/03/22 09:41:42;;;;;;;0.43;0.43;;;12.50;99.90;14.50;100451.00;;;;6274010;22;20172;-70
2023/03/22 09:44:21;;;;;;;1.00;1.00;;;12.30;99.90;14.20;100436.00;;;;6273572;22;20633;-69
2023/03/22 09:46:53;;;;;;;0.33;0.33;;;12.20;99.90;14.60;100425.00;;;;6248334;22;20605;-69
2023/03/22 09:49:26;;;;;;;2.73;2.53;;;12.00;99.90;15.30;100450.00;;;;6274007;22;20227;-70
2023/03/22 09:51:54;;;;;;;1.67;0.80;;;12.30;99.90;13.90;100428.00;;;;6273764;22;20144;-71
2023/03/22 09:54:35;;;;;;;0.20;0.20;;;12.00;99.90;14.20;100409.00;;;;6273799;22;20143;-70
2023/03/22 09:57:25;;;;;;;0.33;0.33;;;12.00;99.90;14.90;100432.00;;;;6273805;22;20599;-70
2023/03/22 10:00:32;;;;;;;0.60;0.33;;;12.10;99.90;14.50;100435.00;;;;6274857;22;20478;-70
2023/03/22 10:03:27;;;;;;;0.93;0.33;;;12.20;99.90;14.80;100436.00;;;;6262398;22;20602;-70
2023/03/22 10:06:30;;;;;;;0.20;0.20;;;12.10;99.90;14.40;100421.00;;;;6273724;22;20144;-70
2023/03/22 10:08:59;;;;;;;0.33;0.33;;;11.90;99.90;14.10;100393.00;;;;6234546;22;20166;-69
2023/03/22 10:11:46;;;;;;;0.57;0.50;;;11.90;99.90;13.50;100391.00;;;;6273684;22;20159;-70
2023/03/22 10:15:00;;;;;;;0.30;0.30;;;11.60;99.90;14.00;100392.00;;;;6274704;22;20518;-69
2023/03/22 10:17:34;;;;;;;0.37;0.37;;;11.60;99.90;14.30;100387.00;;;;6275350;22;20162;-70
2023/03/22 10:20:08;;;;;;;1.13;1.03;;;11.80;99.90;13.50;100394.00;;;;6273448;22;20152;-69
2023/03/22 10:33:51;;;;;;;0.20;0.20;;;11.30;99.90;13.80;100344.00;;;;5075369;28;21100;-70
2023/03/22 10:36:25;;;;;;;21.30;1.70;;;11.50;99.90;13.00;100310.00;;;;5058005;28;20208;-70
2023/03/22 10:39:05;;;;;;;1.53;1.03;;;11.50;99.90;13.70;100351.00;;;;5058661;28;20182;-70
2023/03/22 10:41:33;;;;;;;0.93;0.87;;;11.60;99.90;13.50;100340.00;;;;5055324;28;20186;-70
2023/03/22 10:44:03;;;;;;;0.33;0.33;;;11.60;99.90;13.70;100347.00;;;;5057156;28;20643;-70
2023/03/22 10:46:37;;;;;;;0.20;0.20;;;11.70;99.90;14.00;100353.00;;;;5056257;28;20201;-70
2023/03/22 10:49:09;;;;;;;0.20;0.20;;;11.90;99.90;14.70;100354.00;;;;5055140;28;20265;-70
2023/03/22 10:51:52;;;;;;;0.50;0.50;;;12.00;99.90;14.40;100340.00;;;;5052608;28;20314;-71
2023/03/22 10:54:20;;;;;;;0.50;0.50;;;12.00;99.90;14.10;100342.00;;;;5055765;28;20192;-70
2023/03/22 10:56:46;;;;;;;3.73;0.40;;;12.10;99.90;14.10;100337.00;;;;5059594;28;20536;-71
2023/03/22 10:59:48;;;;;;;3.80;0.80;;;12.10;99.90;14.90;100347.00;;;;5055780;28;20175;-71
2023/03/22 11:02:43;;;;;;;0.20;0.20;;;12.30;99.90;14.10;100324.00;;;;5038943;28;20207;-70
2023/03/22 11:05:21;;;;;;;5.50;1.97;;;12.20;99.90;13.70;100319.00;;;;5057160;28;20265;-70
2023/03/22 11:07:48;;;;;;;2.60;0.70;;;12.10;99.90;13.60;100333.00;;;;5056794;28;20200;-70
2023/03/22 11:10:28;;;;;;;0.20;0.20;;;12.00;99.90;14.50;100335.00;;;;5058157;28;20194;-70
2023/03/22 11:13:06;;;;;;;0.30;0.30;;;12.20;99.90;14.50;100341.00;;;;5034654;28;20216;-71
2023/03/22 11:16:01;;;;;;;0.50;0.50;;;12.30;99.90;14.10;100325.00;;;;5055948;28;20231;-71
2023/03/22 11:18:46;;;;;;;0.80;0.80;;;12.30;99.90;13.80;100302.00;;;;5054924;28;20204;-71
2023/03/22 11:21:20;;;;;;;0.70;0.70;;;12.20;99.90;14.80;100354.00;;;;5057080;28;20249;-72
2023/03/22 11:24:14;;;;;;;0.20;0.20;;;12.40;99.90;15.60;100317.00;;;;5056743;28;20187;-73
2023/03/22 11:26:40;;;;;;;1.33;0.77;;;12.70;99.90;14.30;100335.00;;;;5051845;28;20204;-74
2023/03/22 11:29:12;;;;;;;0.33;0.33;;;12.70;99.90;14.50;100346.00;;;;5053121;28;20194;-78
2023/03/22 11:31:56;;;;;;;0.77;0.60;;;12.50;99.90;14.70;100354.00;;;;5054764;28;20684;-76
2023/03/22 11:34:29;;;;;;;0.40;0.40;;;12.60;99.90;14.40;100350.00;;;;5056925;28;20232;-76
2023/03/22 11:37:07;;;;;;;0.30;0.30;;;12.50;99.90;15.80;100358.00;;;;5052999;28;20240;-77
2023/03/22 11:39:34;;;;;;;0.90;0.90;;;12.70;99.90;14.90;100363.00;;;;5041038;28;20195;-77
2023/03/22 11:42:05;;;;;;;0.30;0.30;;;12.80;99.90;15.50;100351.00;;;;5072039;28;20189;-77
2023/03/22 11:44:34;;;;;;;0.20;0.20;;;12.70;99.90;15.40;100341.00;;;;5048906;28;20194;-76
2023/03/22 11:47:30;;;;;;;0.50;0.50;;;12.80;99.90;15.00;100359.00;;;;5022533;28;20183;-77
2023/03/22 11:50:08;;;;;;;0.30;0.30;;;12.80;99.90;14.50;100362.00;;;;5039609;28;20201;-77
2023/03/22 11:52:37;;;;;;;3.50;0.70;;;12.60;99.90;14.30;100315.00;;;;5039761;28;20210;-77
2023/03/22 11:55:04;;;;;;;0.40;0.40;;;12.50;99.90;14.80;100345.00;;;;5041687;28;20277;-76
2023/03/22 11:57:54;;;;;;;4.63;0.73;;;12.50;99.90;14.80;100357.00;;;;5037997;28;20192;-77
2023/03/22 12:00:51;;;;;;;6.63;1.13;;;12.50;99.90;14.40;100360.00;;;;5038991;28;20644;-77
2023/03/22 12:03:27;;;;;;;1.90;0.30;;;12.60;99.90;14.90;100354.00;;;;5038799;28;20191;-77
2023/03/22 12:05:56;;;;;;;0.30;0.30;;;12.50;99.90;15.80;100376.00;;;;5028615;28;20287;-77
2023/03/22 12:08:49;;;;;;;1.37;1.27;;;12.80;99.90;14.90;100340.00;;;;5018695;28;20228;-77
2023/03/22 12:11:25;;;;;;;0.87;0.87;;;12.70;99.90;15.40;100368.00;;;;5034772;28;20526;-77
2023/03/22 12:14:24;;;;;;;1.07;0.50;;;12.70;99.90;15.10;100387.00;;;;5035516;28;20200;-77
2023/03/22 12:17:35;;;;;;;0.20;0.20;;;12.80;99.90;14.60;100367.00;;;;5017655;28;20186;-77
2023/03/22 12:20:24;;;;;;;0.20;0.20;;;12.70;99.90;15.70;100364.00;;;;5015698;28;20210;-76
2023/03/22 12:22:54;;;;;;;1.07;1.07;;;12.70;99.90;14.80;100338.00;;;;5035083;28;20272;-77
2023/03/22 12:25:47;;;;;;;0.97;0.40;;;12.80;99.90;14.50;100343.00;;;;5017011;28;20186;-76
2023/03/22 12:28:18;;;;;;;0.40;0.40;;;12.60;99.90;15.20;100325.00;;;;5024149;28;20202;-76
2023/03/22 12:30:57;;;;;;;0.33;0.33;;;12.70;99.90;15.40;100336.00;;;;5033726;28;20190;-77
2023/03/22 12:33:42;;;;;;;0.20;0.20;;;12.80;99.90;15.60;100332.00;;;;5033678;28;20288;-77
2023/03/22 12:36:15;;;;;;;1.70;1.60;;;12.90;99.90;14.60;100332.00;;;;5013920;28;20707;-76
2023/03/22 12:38:55;;;;;;;0.80;0.80;;;12.80;99.90;14.70;100330.00;;;;5028765;28;20563;-77
2023/03/22 12:41:37;;;;;;;0.40;0.40;;;12.80;99.90;16.00;100341.00;;;;5017130;28;20184;-77
2023/03/22 12:44:22;;;;;;;0.60;0.60;;;13.10;99.90;15.70;100351.00;;;;5033561;28;20204;-76
2023/03/22 12:47:06;;;;;;;0.20;0.20;;;13.20;99.90;15.40;100351.00;;;;5034860;28;20191;-77
2023/03/22 12:50:06;;;;;;;0.50;0.50;;;13.20;99.90;15.80;100363.00;;;;5037777;28;20179;-77
2023/03/22 12:52:48;;;;;;;0.37;0.23;;;13.10;99.90;15.60;100331.00;;;;5036808;28;20329;-76
2023/03/22 12:55:44;;;;;;;0.50;0.50;;;13.10;99.90;14.80;100324.00;;;;5036171;28;20186;-76
2023/03/22 12:58:27;;;;;;;0.80;0.80;;;12.80;99.90;15.40;100333.00;;;;5033220;28;20186;-76
2023/03/22 13:01:27;;;;;;;0.20;0.20;;;13.00;99.90;15.60;100352.00;;;;5033226;28;20197;-76
2023/03/22 13:04:14;;;;;;;1.13;1.13;;;13.20;99.90;15.40;100336.00;;;;5004825;28;20192;-76
2023/03/22 13:06:46;;;;;;;0.40;0.40;;;13.00;99.90;15.00;100337.00;;;;5031168;28;20285;-76
2023/03/22 13:09:41;;;;;;;0.67;0.60;;;13.00;99.90;14.40;100338.00;;;;5033917;28;20276;-76
2023/03/22 13:12:16;;;;;;;0.50;0.50;;;12.90;99.90;15.40;100332.00;;;;5033917;28;20198;-76
2023/03/22 13:14:58;;;;;;;0.40;0.40;;;12.90;99.90;15.40;100341.00;;;;5033810;28;20687;-76
2023/03/22 13:17:27;;;;;;;1.17;1.03;;;13.00;99.90;15.00;100333.00;;;;5032960;28;20593;-77
2023/03/22 13:20:09;;;;;;;0.60;0.60;;;12.90;99.90;15.10;100330.00;;;;5033991;28;20186;-77
2023/03/22 13:22:56;;;;;;;0.57;0.57;;;12.90;99.90;15.00;100291.00;;;;5029720;28;20294;-77
2023/03/22 13:25:36;;;;;;;1.43;1.33;;;12.90;99.90;14.60;100321.00;;;;5032094;28;20183;-76
2023/03/22 13:28:25;;;;;;;0.73;0.57;;;12.80;99.90;15.10;100293.00;;;;5016244;28;20297;-76
2023/03/22 13:30:54;;;;;;;0.20;0.20;;;12.80;99.90;16.10;100276.00;;;;5032588;28;20238;-77
2023/03/22 13:33:31;;;;;;;3.67;1.00;;;13.00;99.90;15.30;100320.00;;;;5015692;28;20210;-77
2023/03/22 13:36:21;;;;;;;0.80;0.80;;;13.10;99.90;15.00;100308.00;;;;5032714;28;20562;-76
2023/03/22 13:39:05;;;;;;;0.43;0.43;;;13.00;99.90;15.60;100295.00;;;;5048360;28;20205;-77
2023/03/22 13:41:40;;;;;;;0.50;0.50;;;13.00;99.90;15.70;100300.00;;;;5027361;28;20191;-76
2023/03/22 13:44:42;;;;;;;0.20;0.20;;;13.20;99.90;16.20;100307.00;;;;5032176;28;20194;-76
2023/03/22 13:47:37;;;;;;;0.53;0.53;;;13.30;99.90;15.50;100306.00;;;;5011452;28;20551;-77
2023/03/22 13:50:11;;;;;;;0.77;0.60;;;13.20;99.90;14.90;100288.00;;;;5027157;28;20207;-76
2023/03/22 13:53:14;;;;;;;0.20;0.20;;;13.00;99.90;14.60;100294.00;;;;5031825;28;20561;-77
2023/03/22 13:56:00;;;;;;;0.37;0.37;;;12.90;99.90;15.10;100288.00;;;;5031771;28;20187;-76
2023/03/22 13:58:52;;;;;;;0.70;0.70;;;12.90;99.90;15.60;100259.00;;;;5017375;28;20238;-76
2023/03/22 14:01:24;;;;;;;1.33;1.23;;;13.10;99.90;15.10;100278.00;;;;5011719;28;20183;-77
2023/03/22 14:03:56;;;;;;;2.40;1.43;;;13.00;99.90;15.10;100277.00;;;;5039782;28;20665;-77
2023/03/22 14:06:49;;;;;;;1.03;1.03;;;13.00;99.90;15.20;100282.00;;;;5029961;28;20185;-77
2023/03/22 14:09:43;;;;;;;0.37;0.37;;;13.00;99.90;15.40;100272.00;;;;5029663;28;20188;-77
2023/03/22 14:12:44;;;;;;;0.37;0.37;;;12.80;99.90;15.60;100276.00;;;;5016769;28;20557;-77
2023/03/22 14:15:42;;;;;;;1.23;0.97;;;13.10;99.90;15.00;100263.00;;;;5028047;28;20267;-76
2023/03/22 14:18:36;;;;;;;2.33;1.23;;;13.00;99.90;15.20;100259.00;;;;5031993;28;20616;-76
2023/03/22 14:21:33;;;;;;;0.53;0.53;;;12.90;99.90;15.00;100249.00;;;;5031819;28;20199;-77
2023/03/22 14:24:23;;;;;;;1.93;0.77;;;12.90;99.90;14.90;100268.00;;;;5018586;28;20203;-76
2023/03/22 14:27:16;;;;;;;0.80;0.80;;;12.90;99.90;15.30;100255.00;;;;5015078;28;20204;-77
2023/03/22 14:30:06;;;;;;;1.20;0.93;;;12.90;99.90;15.50;100254.00;;;;5012141;28;20248;-77
2023/03/22 14:32:57;;;;;;;0.70;0.70;;;13.00;99.90;14.90;100218.00;;;;5028667;28;20215;-77
2023/03/22 14:35:45;;;;;;;0.80;0.80;;;12.80;99.90;14.90;100248.00;;;;5008652;28;20269;-77
2023/03/22 14:38:27;;;;;;;0.63;0.63;;;12.60;99.90;14.70;100212.00;;;;5058295;28;20202;-77
2023/03/22 14:41:31;;;;;;;1.80;0.80;;;12.60;99.90;14.10;100248.00;;;;5031700;28;20186;-77
2023/03/22 14:44:29;;;;;;;0.50;0.50;;;12.50;99.90;14.70;100240.00;;;;4991231;28;20306;-77
2023/03/22 14:47:24;;;;;;;0.50;0.50;;;12.50;99.90;14.20;100217.00;;;;4970100;28;20287;-76
2023/03/22 14:50:18;;;;;;;1.93;1.13;;;12.50;99.90;14.30;100235.00;;;;4982126;28;20192;-77
2023/03/22 14:52:51;;;;;;;0.93;0.93;;;12.40;99.90;14.80;100240.00;;;;4985925;28;20216;-77
2023/03/22 14:55:40;;;;;;;2.90;1.80;;;12.40;99.90;15.00;100213.00;;;;5029318;28;20413;-76
2023/03/22 14:58:21;;;;;;;2.67;1.43;;;12.60;99.90;14.90;100240.00;;;;5031908;28;20252;-77
2023/03/22 15:00:49;;;;;;;0.63;0.63;;;12.50;99.90;15.00;100238.00;;;;5015291;28;20181;-77
2023/03/22 15:03:49;;;;;;;1.60;1.10;;;12.50;99.90;14.60;100244.00;;;;5014738;28;20190;-78
2023/03/22 15:06:15;;;;;;;1.30;1.20;;;12.50;99.90;13.90;100213.00;;;;5029575;28;20578;-75
2023/03/22 15:08:46;;;;;;;0.50;0.50;;;12.20;99.90;14.60;100248.00;;;;5011127;28;20586;-74
2023/03/22 15:11:18;;;;;;;0.87;0.87;;;12.30;99.90;14.50;100246.00;;;;5013879;28;20589;-69
2023/03/22 15:13:46;;;;;;;0.40;0.40;;;12.30;99.90;14.50;100237.00;;;;5022798;28;20226;-68
2023/03/22 15:16:21;;;;;;;1.37;1.27;;;12.20;99.90;14.60;100235.00;;;;5040486;28;20557;-71
2023/03/22 15:18:50;;;;;;;0.73;0.73;;;12.30;99.90;14.80;100240.00;;;;5021837;28;20181;-73
2023/03/22 15:21:24;;;;;;;0.63;0.63;;;12.30;99.90;14.50;100233.00;;;;5044584;28;20182;-70
2023/03/22 15:23:55;;;;;;;1.57;1.47;;;12.30;99.90;14.10;100244.00;;;;5040772;28;20536;-72
2023/03/22 15:26:27;;;;;;;1.73;1.33;;;12.20;99.90;14.00;100233.00;;;;5026767;28;20186;-71
2023/03/22 15:28:58;;;;;;;1.50;1.40;;;12.10;99.90;14.30;100240.00;;;;5040879;28;20244;-72
2023/03/22 15:31:48;;;;;;;1.37;1.13;;;12.10;99.90;14.50;100240.00;;;;5045144;28;20652;-71
2023/03/22 15:34:35;;;;;;;1.53;1.43;;;12.20;99.90;14.30;100236.00;;;;5025989;28;20193;-73
2023/03/22 15:37:07;;;;;;;1.20;0.80;;;12.20;99.90;14.60;100236.00;;;;5044703;28;20188;-72
2023/03/22 15:39:40;;;;;;;0.80;0.80;;;12.20;99.90;14.90;100230.00;;;;5043505;28;20764;-73
2023/03/22 15:42:24;;;;;;;2.60;0.80;;;12.30;99.90;14.40;100224.00;;;;5024139;28;20276;-71
2023/03/22 15:45:00;;;;;;;1.20;1.17;;;12.20;99.90;14.40;100220.00;;;;5047092;28;20211;-71
2023/03/22 15:47:46;;;;;;;1.37;1.33;;;12.10;99.90;14.70;100217.00;;;;5042704;28;20193;-72
2023/03/22 15:50:21;;;;;;;5.30;5.00;;;12.20;99.90;14.60;100214.00;;;;5038937;28;20634;-71
2023/03/22 15:52:58;;;;;;;1.27;1.27;;;12.20;99.90;14.30;100211.00;;;;5038921;28;20200;-73
2023/03/22 15:55:35;;;;;;;2.40;0.87;;;12.10;99.90;14.80;100217.00;;;;5046685;28;20189;-72
2023/03/22 15:58:31;;;;;;;0.63;0.63;;;12.20;99.90;14.70;100207.00;;;;5040231;28;20212;-72
2023/03/22 16:01:14;;;;;;;1.07;1.00;;;12.30;99.90;14.50;100185.00;;;;5040351;28;20220;-71
2023/03/22 16:03:50;;;;;;;1.43;1.33;;;12.30;99.90;14.40;100191.00;;;;5041278;28;20237;-72
2023/03/22 16:06:18;;;;;;;1.77;1.63;;;12.20;99.90;14.20;100193.00;;;;5041244;28;20186;-72
2023/03/22 16:08:50;;;;;;;2.93;1.63;;;12.10;99.90;14.50;100202.00;;;;5024300;28;20186;-72
2023/03/22 16:11:37;;;;;;;4.23;1.23;;;12.10;99.90;14.90;100199.00;;;;5023801;28;20533;-72
2023/03/22 16:14:03;;;;;;;1.00;1.00;;;12.30;99.90;15.00;100202.00;;;;5040224;28;20209;-69
2023/03/22 16:16:29;;;;;;;1.03;1.00;;;12.30;99.90;14.60;100197.00;;;;5041967;28;20225;-70
2023/03/22 16:19:00;;;;;;;2.30;2.10;;;12.20;99.90;14.70;100187.00;;;;5045909;28;20218;-71
2023/03/22 16:21:29;;;;;;;1.17;0.77;;;12.30;99.90;14.70;100182.00;;;;5043258;28;20197;-71
2023/03/22 16:24:02;;;;;;;4.53;1.67;;;12.30;99.90;14.50;100191.00;;;;5035575;28;20212;-71
2023/03/22 16:26:51;;;;;;;1.87;1.60;;;12.20;99.90;14.60;100181.00;;;;5037233;28;20194;-71
2023/03/22 16:29:25;;;;;;;3.60;1.97;;;12.20;99.90;14.50;100165.00;;;;5042111;28;20191;-70
2023/03/22 16:31:51;;;;;;;2.27;2.03;;;12.20;99.90;14.20;100171.00;;;;5037051;28;20308;-70
2023/03/22 16:34:54;;;;;;;1.07;1.03;;;12.20;99.90;14.50;100185.00;;;;5041011;28;20304;-71
2023/03/22 16:38:09;;;;;;;2.57;1.43;;;12.20;99.90;14.20;100169.00;;;;5036943;28;20241;-71
2023/03/22 16:41:53;;;;;;;1.03;0.93;;;12.20;99.90;14.50;100161.00;;;;5040385;28;20645;-71
2023/03/22 16:45:17;;;;;;;4.60;2.63;;;12.30;99.90;14.50;100157.00;;;;5043678;28;20584;-71
2023/03/22 16:47:43;;;;;;;2.63;1.60;;;12.30;99.90;14.40;100166.00;;;;5037439;28;20564;-71
2023/03/22 16:50:12;;;;;;;2.83;2.57;;;12.20;99.90;14.30;100165.00;;;;5046043;28;20188;-71
2023/03/22 16:52:43;;;;;;;0.87;0.67;;;12.20;99.90;14.80;100122.00;;;;5030469;28;20235;-71
2023/03/22 16:55:26;;;;;;;2.03;1.83;;;12.20;99.90;14.60;100148.00;;;;5040651;28;20186;-72
2023/03/22 16:57:55;;;;;;;7.60;2.77;;;12.30;99.90;14.10;100156.00;;;;5047750;28;20189;-72
2023/03/22 17:00:30;;;;;;;2.33;1.60;;;12.20;99.90;14.40;100142.00;;;;5042823;28;20206;-72
2023/03/22 17:03:03;;;;;;;4.80;3.03;;;12.30;99.90;14.40;100151.00;;;;5037582;28;20255;-72
2023/03/22 17:05:51;;;;;;;1.00;1.00;;;12.30;99.90;14.80;100149.00;;;;5021459;28;20244;-72
2023/03/22 17:08:34;;;;;;;2.43;1.33;;;12.30;99.90;14.80;100157.00;;;;5038499;28;20215;-72
2023/03/22 17:11:00;;;;;;;1.83;1.73;;;12.50;99.90;14.90;100147.00;;;;5030227;28;20272;-75
2023/03/22 17:13:26;;;;;;;0.80;0.80;;;12.40;99.90;14.80;100163.00;;;;5023493;28;20208;-68
2023/03/22 17:15:52;;;;;;;4.10;2.77;;;12.50;99.90;14.60;100121.00;;;;5036967;28;20251;-72
2023/03/22 17:18:18;;;;;;;2.17;1.97;;;12.40;99.90;14.50;100165.00;;;;5035633;28;20572;-73
2023/03/22 17:20:45;;;;;;;0.97;0.97;;;12.30;99.90;14.30;100166.00;;;;5045499;28;20234;-73
2023/03/22 17:23:52;;;;;;;3.93;1.53;;;12.30;99.90;14.90;100173.00;;;;5035967;28;20193;-73
2023/03/22 17:26:37;;;;;;;3.23;2.93;;;12.40;99.90;14.60;100127.00;;;;5039781;28;20670;-73
2023/03/22 17:29:41;;;;;;;20.53;2.57;;;12.40;99.90;15.00;100169.00;;;;5039332;28;20665;-73
2023/03/22 17:32:45;;;;;;;1.70;1.60;;;12.50;99.90;15.20;100162.00;;;;5020407;28;20258;-73
2023/03/22 17:35:33;;;;;;;2.00;1.27;;;12.50;99.90;14.80;100148.00;;;;5041735;28;20201;-73
2023/03/22 17:38:39;;;;;;;1.03;1.03;;;12.60;99.90;15.00;100155.00;;;;5040725;28;20192;-73
2023/03/22 17:45:26;;;;;;;1.67;1.57;;;12.60;99.90;14.50;100157.00;;;;5042366;28;20197;-73
2023/03/22 17:48:29;;;;;;;1.90;0.80;;;12.60;99.90;15.20;100163.00;;;;5035631;28;20189;-74
2023/03/22 17:51:48;;;;;;;1.03;0.93;;;12.60;99.90;15.00;100145.00;;;;5036320;28;20594;-73
2023/03/22 17:54:42;;;;;;;0.30;0.30;;;12.70;99.90;15.70;100130.00;;;;5035958;28;20191;-74
2023/03/22 17:58:08;;;;;;;3.93;1.83;;;12.80;99.90;15.10;100156.00;;;;5007528;28;20230;-73
2023/03/22 18:01:03;;;;;;;0.43;0.43;;;12.70;99.90;14.90;100145.00;;;;5036683;28;20253;-73
2023/03/22 18:04:18;;;;;;;0.50;0.50;;;12.70;99.90;15.30;100127.00;;;;5036168;28;20237;-74
2023/03/22 18:07:37;;;;;;;1.50;1.40;;;12.80;99.90;15.10;100128.00;;;;5044128;28;20254;-74
2023/03/22 18:10:21;;;;;;;1.50;0.87;;;12.80;99.90;15.20;100133.00;;;;5026119;28;20194;-74
2023/03/22 18:13:24;;;;;;;0.60;0.60;;;12.70;99.90;15.20;100135.00;;;;5015402;28;20786;-73
2023/03/22 18:16:08;;;;;;;1.17;0.70;;;12.70;99.90;15.00;100111.00;;;;5021708;28;20189;-73
2023/03/22 18:19:14;;;;;;;0.83;0.80;;;12.70;99.90;15.90;100138.00;;;;5028778;28;20226;-74
2023/03/22 18:22:38;;;;;;;0.93;0.73;;;12.80;99.90;15.20;100104.00;;;;5066891;28;20214;-73
2023/03/22 18:25:39;;;;;;;3.50;0.93;;;12.90;99.90;15.60;100136.00;;;;5035960;28;20187;-74
2023/03/22 18:28:13;;;;;;;1.10;1.10;;;12.80;99.90;15.20;100129.00;;;;5024211;28;20184;-74
2023/03/22 18:31:20;;;;;;;4.90;2.83;;;12.70;99.90;15.50;100122.00;;;;5019005;28;20190;-74
2023/03/22 18:34:43;;;;;;;0.67;0.67;;;12.80;99.90;15.30;100099.00;;;;5021112;28;20574;-74
2023/03/22 18:37:57;;;;;;;1.80;1.07;;;12.90;99.90;15.60;100097.00;;;;5031981;28;20186;-75
2023/03/22 18:40:31;;;;;;;0.60;0.60;;;12.90;99.90;15.40;100112.00;;;;5011939;28;20192;-74
2023/03/22 18:43:21;;;;;;;1.27;1.17;;;12.90;99.90;15.60;100103.00;;;;5026393;28;20244;-74
2023/03/22 18:46:11;;;;;;;0.47;0.47;;;13.00;99.90;15.90;100115.00;;;;5014605;28;20180;-74
2023/03/22 18:48:43;;;;;;;2.47;2.27;;;13.10;99.90;15.00;100104.00;;;;5047116;28;20298;-74
2023/03/22 18:51:58;;;;;;;1.30;1.20;;;13.00;99.90;14.60;100078.00;;;;5032311;28;20188;-71
2023/03/22 18:54:58;;;;;;;0.60;0.60;;;12.80;99.90;15.80;100116.00;;;;5014233;28;20193;-72
2023/03/22 18:58:19;;;;;;;0.70;0.70;;;12.90;99.90;15.40;100096.00;;;;5034237;28;20680;-70
2023/03/22 19:01:38;;;;;;;1.97;1.50;;;12.80;99.90;15.50;100078.00;;;;5035256;28;20175;-74
2023/03/22 19:04:05;;;;;;;2.90;1.87;;;12.90;99.90;14.70;100048.00;;;;5020560;28;20191;-74
2023/03/22 19:06:33;;;;;;;1.90;1.00;;;12.80;99.90;14.80;100088.00;;;;5050235;28;20186;-74
2023/03/22 19:08:59;;;;;;;1.27;0.90;;;12.70;99.90;15.10;100076.00;;;;5044396;28;20221;-75
2023/03/22 19:11:27;;;;;;;1.40;1.13;;;12.80;99.90;15.00;100076.00;;;;5045278;28;20196;-74
2023/03/22 19:13:55;;;;;;;1.27;1.07;;;12.70;99.90;15.10;100034.00;;;;5037287;28;20185;-74
2023/03/22 19:16:28;;;;;;;1.70;1.60;;;12.80;99.90;14.90;100076.00;;;;5037476;28;20210;-74
2023/03/22 19:19:03;;;;;;;2.90;2.17;;;12.80;99.90;15.00;100084.00;;;;5039963;28;20808;-74
2023/03/22 19:21:31;;;;;;;12.67;2.70;;;12.70;99.90;15.00;100100.00;;;;5026711;28;20191;-74
2023/03/22 19:24:00;;;;;;;0.60;0.60;;;12.80;99.90;15.80;100117.00;;;;5042835;28;20186;-74
2023/03/22 19:26:37;;;;;;;1.93;1.73;;;12.90;99.90;15.30;100073.00;;;;5022480;28;20285;-74
2023/03/22 19:29:06;;;;;;;1.47;1.10;;;12.90;99.90;15.30;100091.00;;;;5023582;28;20190;-74
2023/03/22 19:32:09;;;;;;;1.33;1.23;;;12.90;99.90;14.80;100089.00;;;;5037767;28;20237;-74
2023/03/22 19:34:55;;;;;;;0.70;0.70;;;12.70;99.90;15.50;100089.00;;;;5024405;28;20604;-74
2023/03/22 19:37:37;;;;;;;4.17;3.10;;;12.80;99.90;15.20;100093.00;;;;5035663;28;20190;-74
2023/03/22 19:40:36;;;;;;;2.90;2.10;;;12.80;99.90;14.50;100090.00;;;;5035906;28;20541;-74